This is the latest recevied weather packets stored in our database for station/object IZ3VCM. If no packets are shown the sender has not sent any weather packets the latest 10 day(s).
| Time | Temp. | Humidity | Pressure | Rain* | Wind** | Luminosity | Snow |
|---|---|---|---|---|---|---|---|
| 1777714205 | 23.33° C | 40% | 1025.3 hPa | 0 mm | - | - | - |
| 1777713303 | 23.89° C | 40% | 1025.5 hPa | 0 mm | - | - | - |
| 1777712405 | 23.33° C | 42% | 1025.6 hPa | 0 mm | - | - | - |
| 1777711503 | 22.78° C | 42% | 1025.5 hPa | 0 mm | - | - | - |
| 1777710604 | 22.78° C | 44% | 1025.6 hPa | 0 mm | - | - | - |
| 1777709703 | 21.67° C | 46% | 1025.7 hPa | 0 mm | - | - | - |
| 1777708804 | 21.11° C | 47% | 1025.7 hPa | 0 mm | - | - | - |
| 1777707903 | 21.11° C | 48% | 1025.8 hPa | 0 mm | - | - | - |
| 1777707004 | 20.56° C | 50% | 1025.9 hPa | 0 mm | - | - | - |
| 1777706103 | 18.89° C | 52% | 1025.9 hPa | 0 mm | - | - | - |
| 1777705204 | 17.78° C | 54% | 1026 hPa | 0 mm | - | - | - |
| 1777704303 | 17.22° C | 56% | 1026.1 hPa | 0 mm | - | - | - |
| 1777703405 | 16.11° C | 58% | 1026.1 hPa | 0 mm | - | - | - |
| 1777702502 | 15° C | 59% | 1026.2 hPa | 0 mm | - | - | - |
| 1777701605 | 14.44° C | 60% | 1026.3 hPa | 0 mm | - | - | - |
| 1777700703 | 13.89° C | 62% | 1026.3 hPa | 0 mm | - | - | - |
| 1777674608 | 10° C | 60% | 1026.2 hPa | 0 mm | - | - | - |
| 1777673704 | 9.44° C | 61% | 1026.1 hPa | 0 mm | - | - | - |
| 1777672808 | 10° C | 59% | 1026 hPa | 0 mm | - | - | - |
| 1777671904 | 10.56° C | 57% | 1026 hPa | 0 mm | - | - | - |
| 1777671007 | 11.11° C | 53% | 1025.9 hPa | 0 mm | - | - | - |
| 1777670105 | 13.89° C | 46% | 1025.7 hPa | 0 mm | - | - | - |
| 1777669207 | 14.44° C | 45% | 1025.7 hPa | 0 mm | - | - | - |
| 1777668304 | 14.44° C | 45% | 1025.6 hPa | 0 mm | - | - | - |
| 1777667407 | 13.89° C | 47% | 1025.5 hPa | 0 mm | - | - | - |
* Rain latest hour (hover to see other rain measurements)
** Current wind speed in m/s (hover to see current wind gust speed)